createdAt,value
2022-08-05T00:00:16.068Z,97
2022-08-05T00:10:15.840Z,97
2022-08-05T00:20:20.288Z,95
2022-08-05T00:30:17.164Z,95
2022-08-05T00:40:27.719Z,94
2022-08-05T00:50:18.482Z,95
2022-08-05T01:00:19.953Z,95
2022-08-05T01:10:19.674Z,95
2022-08-05T01:30:20.633Z,96
2022-08-05T01:40:21.210Z,97
2022-08-05T01:50:28.439Z,97
2022-08-05T02:00:30.175Z,98
2022-08-05T02:10:28.394Z,98
2022-08-05T02:20:23.820Z,99
2022-08-05T02:30:24.326Z,98
2022-08-05T02:40:24.793Z,98
2022-08-05T02:50:26.094Z,98
2022-08-05T03:00:26.823Z,99
2022-08-05T03:10:26.675Z,99
2022-08-05T03:20:27.285Z,100
2022-08-05T03:30:30.200Z,100
2022-08-05T03:40:31.567Z,100
2022-08-05T03:50:28.167Z,100
2022-08-05T04:00:28.812Z,100
2022-08-05T04:10:31.049Z,100
2022-08-05T04:20:29.318Z,100
2022-08-05T04:30:30.258Z,100
2022-08-05T04:40:30.850Z,100
2022-08-05T04:50:34.559Z,100
2022-08-05T05:00:32.455Z,100
2022-08-05T05:10:33.742Z,100
2022-08-05T05:20:33.822Z,100
2022-08-05T05:30:34.577Z,100
2022-08-05T05:40:35.223Z,100
2022-08-05T05:50:41.376Z,100
2022-08-05T06:00:36.934Z,100
2022-08-05T06:10:49.278Z,100
2022-08-05T06:30:39.316Z,100
2022-08-05T06:40:42.309Z,100
2022-08-05T06:50:40.497Z,100
2022-08-05T07:00:41.090Z,100
2022-08-05T07:20:41.286Z,100
2022-08-05T07:30:41.622Z,100
2022-08-05T07:40:44.367Z,100
2022-08-05T07:50:42.500Z,99
2022-08-05T08:00:43.171Z,99
2022-08-05T08:10:43.764Z,99
2022-08-05T08:21:00.870Z,99
2022-08-05T08:30:47.659Z,99
2022-08-05T08:50:52.737Z,99
2022-08-05T09:00:46.337Z,99
2022-08-05T09:20:46.955Z,99
2022-08-05T09:30:47.834Z,98
2022-08-05T09:40:52.101Z,98
2022-08-05T09:50:48.886Z,98
2022-08-05T10:00:49.503Z,98
2022-08-05T10:32:47.020Z,96
2022-08-05T10:40:52.498Z,93
2022-08-05T11:00:55.137Z,89
2022-08-05T11:11:00.380Z,87
2022-08-05T11:20:55.108Z,85
2022-08-05T11:30:55.275Z,86
2022-08-05T11:40:58.725Z,84
2022-08-05T11:50:55.570Z,81
2022-08-05T12:00:55.855Z,80
2022-08-05T12:10:56.505Z,80
2022-08-05T12:20:57.506Z,80
2022-08-05T12:30:58.241Z,78
2022-08-05T12:40:58.340Z,79
2022-08-05T12:50:59.302Z,77
2022-08-05T13:01:59.029Z,73
2022-08-05T13:11:00.656Z,73
2022-08-05T13:21:01.476Z,74
2022-08-05T13:31:03.252Z,75
2022-08-05T13:41:02.697Z,72
2022-08-05T13:51:02.678Z,68
2022-08-05T14:01:03.112Z,67
2022-08-05T14:11:20.065Z,56
2022-08-05T14:21:23.979Z,51
2022-08-05T14:31:05.598Z,46
2022-08-05T14:41:07.374Z,47
2022-08-05T14:51:06.177Z,45
2022-08-05T15:01:07.060Z,45
2022-08-05T15:11:07.625Z,43
2022-08-05T15:21:08.514Z,45
2022-08-05T15:31:09.090Z,45
2022-08-05T15:41:21.662Z,45
2022-08-05T16:01:16.791Z,45
2022-08-05T16:11:11.383Z,47
2022-08-05T16:21:11.498Z,45
2022-08-05T16:31:12.288Z,47
2022-08-05T16:41:21.562Z,48
2022-08-05T16:51:12.799Z,49
2022-08-05T17:01:13.553Z,49
2022-08-05T17:11:16.766Z,50
2022-08-05T17:21:14.743Z,50
2022-08-05T17:31:24.008Z,49
2022-08-05T17:41:22.875Z,50
2022-08-05T17:51:22.256Z,51
2022-08-05T18:01:22.054Z,52
2022-08-05T18:11:23.483Z,53
2022-08-05T18:21:26.207Z,54
2022-08-05T18:41:54.569Z,56
2022-08-05T18:52:03.771Z,57
2022-08-05T19:01:33.067Z,58
2022-08-05T19:11:28.136Z,60
2022-08-05T20:01:28.821Z,66
2022-08-05T20:41:43.586Z,69
2022-08-05T20:51:31.922Z,70
2022-08-05T21:01:37.602Z,70
2022-08-05T21:12:08.058Z,70
2022-08-05T21:21:38.869Z,70
2022-08-05T21:31:40.977Z,71
2022-08-05T21:41:35.395Z,72
2022-08-05T21:52:15.612Z,72
2022-08-05T22:11:36.837Z,74
2022-08-05T22:21:37.398Z,75
2022-08-05T22:31:44.694Z,76
2022-08-05T22:42:05.848Z,77
2022-08-05T23:01:51.047Z,79
2022-08-05T23:11:40.667Z,80
2022-08-05T23:21:42.713Z,82
2022-08-05T23:31:41.167Z,82
2022-08-05T23:41:48.489Z,83
2022-08-05T23:51:41.501Z,85
